< < Back
Terminal Aerodrome Forecast


Current Version              Previous Versions:   1  2  3  4  5  6  7  8  9  

Terminal Aerodrome Forecast

722
FTUS44 KOHX 301402 AAA
TAFCSV
TAF AMD
KCSV 301402Z 3014/3112 01005KT P6SM OVC007
     FM301500 36007KT P6SM SCT007
     FM301800 34009G15KT P6SM SKC
     FM310200 34006KT P6SM SKC=



Latest METAR

507
SAUS70 KWBC 310300 RRC
MTRCSV
METAR KCSV 310253Z AUTO 35004KT 10SM CLR 22/16 A3013 RMK AO2 SLP181
T02220156 53015


USA.gov is the U.S. government's official web portal to all federal, state and local government web resources and services.